createdAt,value
2023-10-27T00:00:51.641Z,2.38
2023-10-27T00:03:19.637Z,1.35
2023-10-27T00:05:47.564Z,1.58
2023-10-27T00:08:15.344Z,1.80
2023-10-27T00:10:43.327Z,1.95
2023-10-27T00:13:11.195Z,1.50
2023-10-27T00:15:39.130Z,1.60
2023-10-27T00:18:07.185Z,2.03
2023-10-27T00:20:35.101Z,1.30
2023-10-27T00:23:02.821Z,2.10
2023-10-27T00:25:30.602Z,1.70
2023-10-27T00:27:58.588Z,1.48
2023-10-27T00:30:26.363Z,1.85
2023-10-27T00:32:54.269Z,1.42
2023-10-27T00:35:22.157Z,1.48
2023-10-27T00:37:49.946Z,1.30
2023-10-27T00:40:18.053Z,1.52
2023-10-27T00:42:46.231Z,1.48
2023-10-27T00:45:13.967Z,1.50
2023-10-27T00:47:41.765Z,1.52
2023-10-27T00:50:10.048Z,1.33
2023-10-27T00:52:38.136Z,1.50
2023-10-27T00:55:07.655Z,2.05
2023-10-27T00:57:37.669Z,1.70
2023-10-27T01:00:06.148Z,2.13
2023-10-27T01:05:01.658Z,1.45
2023-10-27T01:07:30.572Z,1.52
2023-10-27T01:09:58.450Z,2.35
2023-10-27T01:12:26.125Z,1.48
2023-10-27T01:14:53.936Z,2.03
2023-10-27T01:17:21.798Z,1.83
2023-10-27T01:19:49.748Z,1.90
2023-10-27T01:22:18.068Z,2.00
2023-10-27T01:24:45.711Z,1.60
2023-10-27T01:27:13.337Z,1.65
2023-10-27T01:29:41.072Z,2.55
2023-10-27T01:32:08.799Z,1.88
2023-10-27T01:34:36.601Z,1.30
2023-10-27T01:37:04.574Z,1.88
2023-10-27T01:39:32.418Z,1.30
2023-10-27T01:42:00.133Z,1.40
2023-10-27T01:44:27.847Z,1.60
2023-10-27T01:46:55.617Z,1.50
2023-10-27T01:49:23.421Z,1.90
2023-10-27T01:51:51.408Z,1.58
2023-10-27T01:54:19.172Z,1.38
2023-10-27T01:56:46.875Z,1.33
2023-10-27T01:59:14.578Z,1.40
2023-10-27T02:01:42.265Z,1.60
2023-10-27T02:04:10.174Z,2.10
2023-10-27T02:06:37.919Z,1.50
2023-10-27T02:09:05.623Z,1.60
2023-10-27T02:11:33.545Z,1.85
2023-10-27T02:14:01.228Z,2.22
2023-10-27T02:16:28.896Z,1.10
2023-10-27T02:18:56.648Z,1.33
2023-10-27T02:21:24.387Z,1.75
2023-10-27T02:23:52.014Z,1.20
2023-10-27T02:26:20.933Z,1.27
2023-10-27T02:28:48.630Z,1.20
2023-10-27T02:31:16.318Z,1.42
2023-10-27T02:33:44.082Z,2.08
2023-10-27T02:36:11.768Z,1.20
2023-10-27T02:38:39.528Z,1.00
2023-10-27T02:41:11.535Z,0.85
2023-10-27T02:43:40.156Z,1.67
2023-10-27T02:46:08.040Z,1.83
2023-10-27T02:48:35.928Z,1.77
2023-10-27T02:51:03.827Z,1.27
2023-10-27T02:53:31.583Z,1.40
2023-10-27T02:56:07.342Z,1.40
2023-10-27T02:58:35.358Z,1.75
2023-10-27T03:01:13.462Z,1.55
2023-10-27T03:03:43.382Z,1.70
2023-10-27T03:06:12.586Z,1.60
2023-10-27T03:08:42.943Z,1.02
2023-10-27T03:11:10.898Z,1.50
2023-10-27T03:13:39.399Z,1.98
2023-10-27T03:18:34.954Z,1.20
2023-10-27T03:21:07.294Z,1.65
2023-10-27T03:23:35.201Z,1.45
2023-10-27T03:26:03.137Z,1.30
2023-10-27T03:28:31.037Z,1.25
2023-10-27T03:30:59.589Z,1.83
2023-10-27T03:35:54.977Z,1.40
2023-10-27T03:38:22.788Z,1.83
2023-10-27T03:40:50.515Z,1.60
2023-10-27T03:43:18.348Z,1.27
2023-10-27T03:45:46.189Z,1.30
2023-10-27T03:48:15.888Z,1.02
2023-10-27T03:50:43.855Z,1.10
2023-10-27T03:53:11.720Z,1.15
2023-10-27T03:55:40.991Z,1.45
2023-10-27T03:58:23.005Z,1.20
2023-10-27T04:00:53.902Z,1.45
2023-10-27T04:05:50.680Z,23.05
2023-10-27T04:08:18.539Z,11.95
2023-10-27T04:10:48.627Z,14.32
2023-10-27T04:13:16.588Z,9.05
2023-10-27T04:15:46.639Z,7.15
2023-10-27T04:18:14.809Z,10.40
2023-10-27T04:20:42.755Z,15.15
2023-10-27T04:23:10.753Z,21.73
2023-10-27T04:25:40.756Z,17.23
2023-10-27T04:28:08.703Z,7.32
2023-10-27T04:30:38.320Z,0.93
2023-10-27T04:33:11.411Z,1.00
2023-10-27T04:35:39.684Z,1.52
2023-10-27T04:38:07.531Z,1.38
2023-10-27T04:40:35.866Z,1.23
2023-10-27T04:43:04.930Z,1.27
2023-10-27T04:45:32.909Z,1.40
2023-10-27T04:48:00.856Z,1.27
2023-10-27T04:50:29.337Z,1.23
2023-10-27T04:52:57.101Z,1.02
2023-10-27T04:55:24.861Z,1.38
2023-10-27T04:57:52.801Z,1.42
2023-10-27T05:00:20.455Z,1.33
2023-10-27T05:02:48.361Z,1.48
2023-10-27T05:05:16.163Z,1.80
2023-10-27T05:07:44.072Z,1.10
2023-10-27T05:10:12.103Z,1.48
2023-10-27T05:12:40.291Z,1.55
2023-10-27T05:15:09.601Z,1.35
2023-10-27T05:17:37.468Z,1.13
2023-10-27T05:20:07.380Z,1.65
2023-10-27T05:22:35.733Z,1.02
2023-10-27T05:25:05.555Z,2.08
2023-10-27T05:27:33.552Z,1.50
2023-10-27T05:30:02.564Z,2.03
2023-10-27T05:32:31.529Z,1.75
2023-10-27T05:34:59.451Z,1.48
2023-10-27T05:37:28.437Z,1.25
2023-10-27T05:39:56.303Z,1.48
2023-10-27T05:42:24.035Z,1.70
2023-10-27T05:44:51.743Z,1.42
2023-10-27T05:47:21.118Z,2.00
2023-10-27T05:49:49.087Z,1.63
2023-10-27T05:52:17.729Z,1.73
2023-10-27T05:57:16.694Z,1.38
2023-10-27T05:59:44.882Z,1.15
2023-10-27T06:02:16.081Z,2.10
2023-10-27T06:04:45.082Z,1.20
2023-10-27T06:07:17.192Z,1.30
2023-10-27T06:09:45.947Z,2.38
2023-10-27T06:12:14.077Z,1.33
2023-10-27T06:14:46.067Z,1.35
2023-10-27T06:17:14.909Z,1.20
2023-10-27T06:19:42.891Z,1.35
2023-10-27T06:22:11.038Z,1.35
2023-10-27T06:24:39.165Z,1.67
2023-10-27T06:27:07.230Z,1.95
2023-10-27T06:29:35.957Z,1.60
2023-10-27T06:34:33.089Z,2.28
2023-10-27T06:37:02.542Z,2.25
2023-10-27T06:39:30.395Z,9.95
2023-10-27T06:41:58.557Z,4.68
2023-10-27T06:44:27.047Z,2.70
2023-10-27T06:46:55.463Z,1.95
2023-10-27T06:49:23.336Z,2.08
2023-10-27T06:51:51.826Z,2.40
2023-10-27T06:54:19.569Z,3.30
2023-10-27T06:56:47.443Z,3.05
2023-10-27T06:59:15.213Z,2.50
2023-10-27T07:01:47.209Z,2.05
2023-10-27T07:04:16.212Z,2.05
2023-10-27T07:06:44.185Z,2.35
2023-10-27T07:09:12.077Z,2.03
2023-10-27T07:11:40.263Z,2.22
2023-10-27T07:14:08.267Z,2.22
2023-10-27T07:16:36.232Z,2.45
2023-10-27T07:19:05.977Z,2.10
2023-10-27T07:21:35.847Z,2.40
2023-10-27T07:24:03.614Z,2.17
2023-10-27T07:26:31.361Z,1.77
2023-10-27T07:28:59.195Z,2.28
2023-10-27T07:31:27.162Z,2.00
2023-10-27T07:33:55.138Z,2.35
2023-10-27T07:36:23.730Z,2.00
2023-10-27T07:41:19.565Z,2.00
2023-10-27T07:43:47.416Z,2.65
2023-10-27T07:46:15.416Z,2.05
2023-10-27T07:48:43.364Z,2.28
2023-10-27T07:51:11.496Z,2.05
2023-10-27T07:53:41.242Z,2.50
2023-10-27T07:56:10.381Z,2.70
2023-10-27T07:58:38.150Z,2.80
2023-10-27T08:01:07.806Z,2.08
2023-10-27T08:03:35.736Z,2.90
2023-10-27T08:06:09.241Z,2.35
2023-10-27T08:08:40.425Z,1.58
2023-10-27T08:11:08.573Z,1.00
2023-10-27T08:13:36.472Z,1.40
2023-10-27T08:16:06.145Z,2.42
2023-10-27T08:18:34.077Z,2.17
2023-10-27T08:21:02.128Z,2.25
2023-10-27T08:23:30.110Z,2.13
2023-10-27T08:25:58.097Z,1.75
2023-10-27T08:28:25.949Z,1.67
2023-10-27T08:30:54.942Z,2.28
2023-10-27T08:33:23.046Z,1.60
2023-10-27T08:35:51.075Z,1.77
2023-10-27T08:38:18.921Z,2.00
2023-10-27T08:40:47.304Z,2.13
2023-10-27T08:43:16.084Z,1.58
2023-10-27T08:45:44.686Z,2.88
2023-10-27T08:48:14.209Z,2.30
2023-10-27T08:50:42.700Z,2.45
2023-10-27T08:53:14.075Z,2.80
2023-10-27T08:55:43.118Z,1.92
2023-10-27T08:58:11.040Z,2.20
2023-10-27T09:00:39.112Z,1.92
2023-10-27T09:03:20.094Z,2.38
2023-10-27T09:05:48.024Z,1.75
2023-10-27T09:08:15.966Z,1.73
2023-10-27T09:10:48.048Z,1.95
2023-10-27T09:13:23.071Z,2.78
2023-10-27T09:15:52.315Z,1.95
2023-10-27T09:18:53.985Z,2.00
2023-10-27T09:21:39.941Z,2.45
2023-10-27T09:24:10.051Z,2.25
2023-10-27T09:27:01.685Z,1.95
2023-10-27T09:29:31.981Z,1.77
2023-10-27T09:32:00.396Z,3.65
2023-10-27T09:34:31.593Z,2.05
2023-10-27T09:37:00.554Z,1.55
2023-10-27T09:39:30.163Z,1.85
2023-10-27T09:42:04.009Z,2.10
2023-10-27T09:47:17.646Z,2.03
2023-10-27T09:49:49.160Z,1.52
2023-10-27T09:52:22.467Z,2.00
2023-10-27T09:55:02.666Z,1.83
2023-10-27T09:57:38.457Z,2.28
2023-10-27T10:00:10.184Z,1.75
2023-10-27T10:02:39.247Z,2.22
2023-10-27T10:05:10.710Z,2.25
2023-10-27T10:07:45.265Z,1.52
2023-10-27T10:10:28.381Z,2.50
2023-10-27T10:13:07.507Z,1.83
2023-10-27T10:15:36.642Z,1.83
2023-10-27T10:18:09.662Z,2.25
2023-10-27T10:20:43.523Z,2.30
2023-10-27T10:23:14.821Z,2.35
2023-10-27T10:25:59.513Z,1.90
2023-10-27T10:28:32.195Z,1.75
2023-10-27T10:31:09.402Z,1.40
2023-10-27T10:33:48.346Z,1.88
2023-10-27T10:36:17.259Z,1.83
2023-10-27T10:38:57.430Z,1.42
2023-10-27T10:41:46.507Z,2.17
2023-10-27T10:44:14.871Z,1.80
2023-10-27T10:46:48.541Z,1.67
2023-10-27T10:49:28.305Z,1.77
2023-10-27T10:51:59.996Z,1.92
2023-10-27T10:54:33.782Z,2.22
2023-10-27T10:57:16.538Z,2.10
2023-10-27T10:59:56.023Z,2.20
2023-10-27T11:02:24.246Z,1.23
2023-10-27T11:04:53.735Z,1.88
2023-10-27T11:07:22.451Z,2.05
2023-10-27T11:09:50.469Z,2.15
2023-10-27T11:12:27.581Z,1.48
2023-10-27T11:14:55.629Z,1.75
2023-10-27T11:17:24.000Z,2.17
2023-10-27T11:19:56.432Z,4.47
2023-10-27T11:22:26.780Z,2.47
2023-10-27T11:24:55.337Z,3.15
2023-10-27T11:30:02.211Z,3.55
2023-10-27T11:32:30.374Z,2.92
2023-10-27T11:37:28.124Z,1.60
2023-10-27T11:39:58.925Z,2.25
2023-10-27T11:42:26.913Z,1.77
2023-10-27T11:44:54.694Z,2.00
2023-10-27T11:47:22.912Z,1.50
2023-10-27T11:49:50.805Z,3.08
2023-10-27T11:52:21.344Z,2.70
2023-10-27T11:54:49.278Z,2.22
2023-10-27T11:57:17.141Z,2.40
2023-10-27T11:59:45.330Z,1.60
2023-10-27T12:02:15.341Z,1.92
2023-10-27T12:04:43.563Z,2.25
2023-10-27T12:07:13.150Z,1.75
2023-10-27T12:09:41.189Z,2.70
2023-10-27T12:12:10.741Z,2.22
2023-10-27T12:14:39.345Z,2.40
2023-10-27T12:17:07.719Z,1.85
2023-10-27T12:19:35.623Z,2.70
2023-10-27T12:22:03.961Z,3.15
2023-10-27T12:27:03.719Z,1.95
2023-10-27T12:29:31.479Z,2.63
2023-10-27T12:31:59.430Z,1.40
2023-10-27T12:34:27.301Z,2.28
2023-10-27T12:36:55.339Z,1.35
2023-10-27T12:39:25.225Z,1.70
2023-10-27T12:41:53.077Z,1.95
2023-10-27T12:44:21.167Z,3.00
2023-10-27T12:46:49.097Z,2.45
2023-10-27T12:49:17.383Z,1.85
2023-10-27T12:51:45.632Z,2.17
2023-10-27T12:54:13.559Z,1.50
2023-10-27T12:56:41.451Z,1.88
2023-10-27T12:59:11.688Z,1.48
2023-10-27T13:01:39.634Z,2.33
2023-10-27T13:04:08.073Z,3.88
2023-10-27T13:09:04.598Z,2.60
2023-10-27T13:11:32.676Z,2.00
2023-10-27T13:14:00.415Z,2.72
2023-10-27T13:16:28.751Z,2.47
2023-10-27T13:18:56.649Z,3.85
2023-10-27T13:21:24.527Z,2.58
2023-10-27T13:23:52.258Z,1.52
2023-10-27T13:26:20.695Z,1.80
2023-10-27T13:31:16.111Z,2.15
2023-10-27T13:33:44.037Z,2.80
2023-10-27T13:36:12.132Z,2.03
2023-10-27T13:38:41.900Z,2.08
2023-10-27T13:41:17.314Z,1.65
2023-10-27T13:43:47.314Z,2.17
2023-10-27T13:46:18.522Z,1.33
2023-10-27T13:48:47.392Z,2.92
2023-10-27T13:51:18.735Z,2.25
2023-10-27T13:53:46.623Z,1.65
2023-10-27T13:56:14.612Z,2.45
2023-10-27T13:58:43.591Z,2.20
2023-10-27T14:01:12.130Z,3.78
2023-10-27T14:03:43.714Z,3.72
2023-10-27T14:06:14.809Z,4.63
2023-10-27T14:08:43.209Z,3.35
2023-10-27T14:11:11.602Z,2.20
2023-10-27T14:13:39.412Z,1.77
2023-10-27T14:16:11.636Z,2.38
2023-10-27T14:18:40.550Z,2.42
2023-10-27T14:21:08.986Z,2.10
2023-10-27T14:23:36.984Z,2.50
2023-10-27T14:26:05.690Z,1.98
2023-10-27T14:31:08.037Z,2.35
2023-10-27T14:33:36.299Z,2.65
2023-10-27T14:36:14.404Z,1.58
2023-10-27T14:38:42.279Z,1.95
2023-10-27T14:43:40.983Z,2.35
2023-10-27T14:46:13.665Z,3.90
2023-10-27T14:48:42.243Z,2.55
2023-10-27T14:51:11.923Z,3.00
2023-10-27T14:53:40.014Z,1.98
2023-10-27T14:56:10.227Z,2.30
2023-10-27T14:58:38.725Z,2.40
2023-10-27T15:03:39.386Z,2.22
2023-10-27T15:06:10.610Z,1.88
2023-10-27T15:08:40.398Z,1.45
2023-10-27T15:11:09.171Z,2.63
2023-10-27T15:13:37.409Z,2.83
2023-10-27T15:16:13.057Z,2.05
2023-10-27T15:18:43.314Z,1.98
2023-10-27T15:21:13.358Z,2.90
2023-10-27T15:23:41.359Z,2.70
2023-10-27T15:26:10.100Z,2.05
2023-10-27T15:28:38.096Z,1.58
2023-10-27T15:31:10.534Z,2.25
2023-10-27T15:33:40.128Z,3.03
2023-10-27T15:36:13.505Z,2.08
2023-10-27T15:38:46.533Z,2.65
2023-10-27T15:41:28.637Z,1.52
2023-10-27T15:43:58.362Z,1.85
2023-10-27T15:46:26.164Z,2.05
2023-10-27T15:48:54.103Z,2.35
2023-10-27T15:51:23.243Z,4.15
2023-10-27T15:53:51.988Z,2.40
2023-10-27T15:56:28.117Z,2.05
2023-10-27T15:59:00.601Z,2.25
2023-10-27T16:01:28.677Z,1.63
2023-10-27T16:03:56.708Z,1.80
2023-10-27T16:06:24.782Z,1.73
2023-10-27T16:08:55.278Z,2.33
2023-10-27T16:11:25.924Z,2.25
2023-10-27T16:13:53.694Z,1.55
2023-10-27T16:16:21.675Z,2.45
2023-10-27T16:18:50.187Z,2.30
2023-10-27T16:23:48.142Z,2.13
2023-10-27T16:26:16.299Z,1.85
2023-10-27T16:28:44.263Z,2.38
2023-10-27T16:31:12.381Z,2.58
2023-10-27T16:33:41.762Z,2.63
2023-10-27T16:36:11.172Z,2.13
2023-10-27T16:38:39.128Z,2.00
2023-10-27T16:41:07.282Z,2.50
2023-10-27T16:43:38.605Z,1.98
2023-10-27T16:46:06.612Z,1.92
2023-10-27T16:48:34.884Z,1.63
2023-10-27T16:51:14.900Z,1.75
2023-10-27T16:53:43.664Z,1.65
2023-10-27T16:56:14.295Z,2.30
2023-10-27T16:58:42.371Z,1.52
2023-10-27T17:01:10.327Z,2.03
2023-10-27T17:03:38.391Z,1.73
2023-10-27T17:06:07.520Z,1.83
2023-10-27T17:08:35.348Z,2.78
2023-10-27T17:11:07.739Z,1.73
2023-10-27T17:13:38.510Z,1.88
2023-10-27T17:16:10.221Z,2.03
2023-10-27T17:18:43.098Z,1.77
2023-10-27T17:21:16.105Z,2.72
2023-10-27T17:23:46.032Z,2.58
2023-10-27T17:26:14.047Z,1.65
2023-10-27T17:28:43.162Z,2.00
2023-10-27T17:31:11.675Z,1.67
2023-10-27T17:33:40.707Z,2.00
2023-10-27T17:36:16.217Z,2.00
2023-10-27T17:38:48.453Z,1.65
2023-10-27T17:41:18.289Z,1.95
2023-10-27T17:43:46.431Z,2.03
2023-10-27T17:46:17.235Z,2.90
2023-10-27T17:48:48.071Z,2.10
2023-10-27T17:51:17.694Z,2.60
2023-10-27T17:56:13.639Z,1.88
2023-10-27T17:58:41.505Z,2.28
2023-10-27T18:01:13.181Z,2.50
2023-10-27T18:03:41.931Z,3.00
2023-10-27T18:06:13.661Z,2.88
2023-10-27T18:08:42.426Z,2.45
2023-10-27T18:13:39.252Z,2.67
2023-10-27T18:16:09.058Z,2.67
2023-10-27T18:18:37.145Z,2.50
2023-10-27T18:21:07.492Z,2.25
2023-10-27T18:23:36.152Z,2.50
2023-10-27T18:26:13.093Z,2.78
2023-10-27T18:28:41.589Z,2.90
2023-10-27T18:31:09.583Z,1.95
2023-10-27T18:33:40.141Z,2.55
2023-10-27T18:36:19.381Z,1.70
2023-10-27T18:38:50.119Z,2.15
2023-10-27T18:41:21.859Z,2.72
2023-10-27T18:43:53.387Z,2.17
2023-10-27T18:46:21.337Z,3.00
2023-10-27T18:48:50.278Z,3.83
2023-10-27T18:51:19.453Z,2.75
2023-10-27T18:53:48.163Z,3.30
2023-10-27T18:58:47.084Z,2.72
2023-10-27T19:01:16.014Z,2.63
2023-10-27T19:06:19.696Z,2.72
2023-10-27T19:08:47.573Z,2.33
2023-10-27T19:11:19.044Z,2.60
2023-10-27T19:13:50.042Z,3.65
2023-10-27T19:16:18.325Z,3.33
2023-10-27T19:18:48.355Z,3.75
2023-10-27T19:21:18.976Z,4.50
2023-10-27T19:23:52.703Z,3.20
2023-10-27T19:26:23.073Z,2.65
2023-10-27T19:28:54.037Z,3.05
2023-10-27T19:31:27.009Z,2.95
2023-10-27T19:33:56.615Z,4.60
2023-10-27T19:36:27.492Z,2.97
2023-10-27T19:38:56.437Z,2.92
2023-10-27T19:41:26.899Z,3.15
2023-10-27T19:43:55.195Z,2.92
2023-10-27T19:46:28.187Z,2.45
2023-10-27T19:48:57.108Z,3.00
2023-10-27T19:51:26.337Z,2.60
2023-10-27T19:53:57.093Z,3.33
2023-10-27T19:56:26.136Z,2.95
2023-10-27T19:58:54.117Z,2.60
2023-10-27T20:01:25.594Z,2.92
2023-10-27T20:03:54.565Z,2.80
2023-10-27T20:06:22.580Z,4.15
2023-10-27T20:08:51.954Z,4.90
2023-10-27T20:11:21.162Z,7.82
2023-10-27T20:13:49.349Z,7.38
2023-10-27T20:16:21.494Z,6.25
2023-10-27T20:18:51.468Z,4.60
2023-10-27T20:21:19.627Z,4.10
2023-10-27T20:23:48.081Z,3.83
2023-10-27T20:26:17.057Z,2.97
2023-10-27T20:28:45.157Z,4.07
2023-10-27T20:31:14.034Z,2.95
2023-10-27T20:33:42.040Z,2.50
2023-10-27T20:36:10.516Z,2.88
2023-10-27T20:38:39.750Z,2.42
2023-10-27T20:41:07.999Z,3.65
2023-10-27T20:43:35.984Z,2.50
2023-10-27T20:46:04.741Z,2.67
2023-10-27T20:51:04.432Z,2.70
2023-10-27T20:53:32.685Z,4.50
2023-10-27T20:56:01.088Z,4.07
2023-10-27T20:58:29.361Z,4.07
2023-10-27T21:00:57.274Z,4.05
2023-10-27T21:03:25.213Z,4.13
2023-10-27T21:05:53.236Z,4.30
2023-10-27T21:08:21.152Z,5.63
2023-10-27T21:10:52.136Z,5.50
2023-10-27T21:13:20.136Z,4.65
2023-10-27T21:15:48.214Z,3.83
2023-10-27T21:18:16.058Z,7.28
2023-10-27T21:20:44.386Z,7.50
2023-10-27T21:23:12.619Z,6.32
2023-10-27T21:25:41.111Z,4.45
2023-10-27T21:28:10.190Z,3.97
2023-10-27T21:30:38.068Z,2.72
2023-10-27T21:33:06.258Z,4.30
2023-10-27T21:35:34.323Z,4.00
2023-10-27T21:38:02.454Z,4.25
2023-10-27T21:40:30.950Z,4.63
2023-10-27T21:42:59.108Z,4.82
2023-10-27T21:45:26.982Z,5.82
2023-10-27T21:47:55.516Z,5.35
2023-10-27T21:50:23.949Z,5.32
2023-10-27T21:52:51.879Z,5.50
2023-10-27T21:55:19.970Z,4.28
2023-10-27T21:57:48.996Z,4.63
2023-10-27T22:00:35.731Z,5.43
2023-10-27T22:03:05.573Z,5.03
2023-10-27T22:05:33.565Z,3.65
2023-10-27T22:08:01.979Z,4.20
2023-10-27T22:10:30.998Z,4.18
2023-10-27T22:12:58.991Z,4.80
2023-10-27T22:15:27.984Z,4.18
2023-10-27T22:17:56.113Z,5.93
2023-10-27T22:20:24.053Z,4.45
2023-10-27T22:22:52.520Z,4.25
2023-10-27T22:25:21.194Z,4.05
2023-10-27T22:27:58.807Z,4.10
2023-10-27T22:30:34.047Z,4.32
2023-10-27T22:33:02.592Z,4.15
2023-10-27T22:35:32.311Z,3.92
2023-10-27T22:38:00.883Z,3.25
2023-10-27T22:40:29.153Z,4.63
2023-10-27T22:42:58.067Z,4.22
2023-10-27T22:45:29.067Z,3.85
2023-10-27T22:47:58.163Z,3.58
2023-10-27T22:50:26.625Z,2.60
2023-10-27T22:52:54.485Z,3.22
2023-10-27T22:55:22.672Z,2.53
2023-10-27T22:57:52.496Z,2.97
2023-10-27T23:00:24.004Z,2.92
2023-10-27T23:02:53.006Z,3.00
2023-10-27T23:05:21.462Z,2.40
2023-10-27T23:07:49.462Z,3.30
2023-10-27T23:10:18.051Z,2.13
2023-10-27T23:12:46.116Z,2.63
2023-10-27T23:15:13.950Z,2.97
2023-10-27T23:17:41.807Z,3.10
2023-10-27T23:20:14.035Z,2.70
2023-10-27T23:22:42.115Z,2.60
2023-10-27T23:25:10.006Z,2.72
2023-10-27T23:27:38.017Z,3.10
2023-10-27T23:30:08.493Z,3.38
2023-10-27T23:32:37.238Z,3.28
2023-10-27T23:37:33.569Z,4.28
2023-10-27T23:40:01.379Z,4.35
2023-10-27T23:42:29.352Z,3.40
2023-10-27T23:44:57.933Z,2.97
2023-10-27T23:47:27.674Z,2.28
2023-10-27T23:49:55.493Z,2.22
2023-10-27T23:52:23.389Z,2.42
2023-10-27T23:54:51.112Z,2.50
2023-10-27T23:57:21.459Z,2.70
2023-10-27T23:59:49.202Z,3.28
